sensor_id;sensor_type;location;lat;lon;timestamp;temperature;humidity
22678;DHT22;26259;50.214;18.620;2022-11-15T00:01:34;5.10;99.90
22678;DHT22;26259;50.214;18.620;2022-11-15T00:04:03;5.10;99.90
22678;DHT22;26259;50.214;18.620;2022-11-15T00:06:28;5.00;99.90
22678;DHT22;26259;50.214;18.620;2022-11-15T00:08:54;5.00;99.90
22678;DHT22;26259;50.214;18.620;2022-11-15T00:11:19;5.00;99.90
22678;DHT22;26259;50.214;18.620;2022-11-15T00:13:45;4.90;99.90
22678;DHT22;26259;50.214;18.620;2022-11-15T00:16:11;4.90;99.90
22678;DHT22;26259;50.214;18.620;2022-11-15T00:18:37;4.90;99.90
22678;DHT22;26259;50.214;18.620;2022-11-15T00:21:05;4.80;99.90
22678;DHT22;26259;50.214;18.620;2022-11-15T00:23:32;4.80;99.90
22678;DHT22;26259;50.214;18.620;2022-11-15T00:25:58;4.80;99.90
22678;DHT22;26259;50.214;18.620;2022-11-15T00:28:24;4.80;99.90
22678;DHT22;26259;50.214;18.620;2022-11-15T00:30:50;4.80;99.90
22678;DHT22;26259;50.214;18.620;2022-11-15T00:33:16;4.80;99.90
22678;DHT22;26259;50.214;18.620;2022-11-15T00:35:41;4.80;99.90
22678;DHT22;26259;50.214;18.620;2022-11-15T00:38:07;4.70;99.90
22678;DHT22;26259;50.214;18.620;2022-11-15T00:40:32;4.70;99.90
22678;DHT22;26259;50.214;18.620;2022-11-15T00:42:58;4.60;99.90
22678;DHT22;26259;50.214;18.620;2022-11-15T00:45:24;4.60;99.90
22678;DHT22;26259;50.214;18.620;2022-11-15T00:47:51;4.60;99.90
22678;DHT22;26259;50.214;18.620;2022-11-15T00:50:17;4.50;99.90
22678;DHT22;26259;50.214;18.620;2022-11-15T00:52:42;4.50;99.90
22678;DHT22;26259;50.214;18.620;2022-11-15T00:55:18;4.40;99.90
22678;DHT22;26259;50.214;18.620;2022-11-15T00:57:44;4.40;99.90
22678;DHT22;26259;50.214;18.620;2022-11-15T01:00:11;4.40;99.90
22678;DHT22;26259;50.214;18.620;2022-11-15T01:02:36;4.30;99.90
22678;DHT22;26259;50.214;18.620;2022-11-15T01:05:02;4.30;99.90
22678;DHT22;26259;50.214;18.620;2022-11-15T01:07:28;4.30;99.90
22678;DHT22;26259;50.214;18.620;2022-11-15T01:09:53;4.30;99.90
22678;DHT22;26259;50.214;18.620;2022-11-15T01:12:19;4.30;99.90
22678;DHT22;26259;50.214;18.620;2022-11-15T01:14:44;4.30;99.90
22678;DHT22;26259;50.214;18.620;2022-11-15T01:17:10;4.20;99.90
22678;DHT22;26259;50.214;18.620;2022-11-15T01:19:36;4.30;99.90
22678;DHT22;26259;50.214;18.620;2022-11-15T01:22:01;4.30;99.90
22678;DHT22;26259;50.214;18.620;2022-11-15T01:24:27;4.30;99.90
22678;DHT22;26259;50.214;18.620;2022-11-15T01:26:52;4.30;99.90
22678;DHT22;26259;50.214;18.620;2022-11-15T01:29:18;4.30;99.90
22678;DHT22;26259;50.214;18.620;2022-11-15T01:31:43;4.40;99.90
22678;DHT22;26259;50.214;18.620;2022-11-15T01:34:09;4.40;99.90
22678;DHT22;26259;50.214;18.620;2022-11-15T01:36:35;4.40;99.90
22678;DHT22;26259;50.214;18.620;2022-11-15T01:39:00;4.30;99.90
22678;DHT22;26259;50.214;18.620;2022-11-15T01:41:32;4.30;99.90
22678;DHT22;26259;50.214;18.620;2022-11-15T01:47:02;4.30;99.90
22678;DHT22;26259;50.214;18.620;2022-11-15T01:49:30;4.30;99.90
22678;DHT22;26259;50.214;18.620;2022-11-15T01:51:58;4.20;99.90
22678;DHT22;26259;50.214;18.620;2022-11-15T01:54:24;4.20;99.90
22678;DHT22;26259;50.214;18.620;2022-11-15T01:56:59;4.20;99.90
22678;DHT22;26259;50.214;18.620;2022-11-15T01:59:25;4.20;99.90
22678;DHT22;26259;50.214;18.620;2022-11-15T02:01:51;4.10;99.90
22678;DHT22;26259;50.214;18.620;2022-11-15T02:04:25;4.10;99.90
22678;DHT22;26259;50.214;18.620;2022-11-15T02:06:52;4.10;99.90
22678;DHT22;26259;50.214;18.620;2022-11-15T02:09:18;4.10;99.90
22678;DHT22;26259;50.214;18.620;2022-11-15T02:11:45;4.10;99.90
22678;DHT22;26259;50.214;18.620;2022-11-15T02:14:13;4.10;99.90
22678;DHT22;26259;50.214;18.620;2022-11-15T02:42:33;3.90;99.90
22678;DHT22;26259;50.214;18.620;2022-11-15T02:45:27;3.90;99.90
22678;DHT22;26259;50.214;18.620;2022-11-15T02:47:56;3.90;99.90
22678;DHT22;26259;50.214;18.620;2022-11-15T02:50:26;3.90;99.90
22678;DHT22;26259;50.214;18.620;2022-11-15T02:52:53;3.90;99.90
22678;DHT22;26259;50.214;18.620;2022-11-15T03:00:24;3.90;99.90
22678;DHT22;26259;50.214;18.620;2022-11-15T03:08:44;3.80;99.90
22678;DHT22;26259;50.214;18.620;2022-11-15T03:11:18;3.70;99.90
22678;DHT22;26259;50.214;18.620;2022-11-15T03:13:50;3.70;99.90
22678;DHT22;26259;50.214;18.620;2022-11-15T03:19:12;3.70;99.90
22678;DHT22;26259;50.214;18.620;2022-11-15T03:21:32;3.60;99.90
22678;DHT22;26259;50.214;18.620;2022-11-15T03:24:02;3.60;99.90
22678;DHT22;26259;50.214;18.620;2022-11-15T03:26:29;3.60;99.90
22678;DHT22;26259;50.214;18.620;2022-11-15T03:29:03;3.50;99.90
22678;DHT22;26259;50.214;18.620;2022-11-15T03:31:33;3.50;99.90
22678;DHT22;26259;50.214;18.620;2022-11-15T03:37:00;3.50;99.90
22678;DHT22;26259;50.214;18.620;2022-11-15T03:39:27;3.50;99.90
22678;DHT22;26259;50.214;18.620;2022-11-15T03:45:02;3.50;99.90
22678;DHT22;26259;50.214;18.620;2022-11-15T03:47:39;3.50;99.90
22678;DHT22;26259;50.214;18.620;2022-11-15T03:50:13;3.50;99.90
22678;DHT22;26259;50.214;18.620;2022-11-15T03:52:41;3.50;99.90
22678;DHT22;26259;50.214;18.620;2022-11-15T03:55:11;3.50;99.90
22678;DHT22;26259;50.214;18.620;2022-11-15T03:57:37;3.40;99.90
22678;DHT22;26259;50.214;18.620;2022-11-15T04:00:04;3.40;99.90
22678;DHT22;26259;50.214;18.620;2022-11-15T04:02:30;3.40;99.90
22678;DHT22;26259;50.214;18.620;2022-11-15T04:04:56;3.40;99.90
22678;DHT22;26259;50.214;18.620;2022-11-15T04:07:22;3.40;99.90
22678;DHT22;26259;50.214;18.620;2022-11-15T04:09:47;3.40;99.90
22678;DHT22;26259;50.214;18.620;2022-11-15T04:12:39;3.40;99.90
22678;DHT22;26259;50.214;18.620;2022-11-15T04:15:10;3.40;99.90
22678;DHT22;26259;50.214;18.620;2022-11-15T04:17:47;3.30;99.90
22678;DHT22;26259;50.214;18.620;2022-11-15T04:20:20;3.30;99.90
22678;DHT22;26259;50.214;18.620;2022-11-15T04:23:10;3.30;99.90
22678;DHT22;26259;50.214;18.620;2022-11-15T04:25:56;3.20;99.90
22678;DHT22;26259;50.214;18.620;2022-11-15T04:28:23;3.20;99.90
22678;DHT22;26259;50.214;18.620;2022-11-15T04:30:48;3.20;99.90
22678;DHT22;26259;50.214;18.620;2022-11-15T04:33:14;3.20;99.90
22678;DHT22;26259;50.214;18.620;2022-11-15T04:35:40;3.20;99.90
22678;DHT22;26259;50.214;18.620;2022-11-15T04:38:08;3.20;99.90
22678;DHT22;26259;50.214;18.620;2022-11-15T04:40:36;3.20;99.90
22678;DHT22;26259;50.214;18.620;2022-11-15T04:43:01;3.10;99.90
22678;DHT22;26259;50.214;18.620;2022-11-15T04:45:27;3.20;99.90
22678;DHT22;26259;50.214;18.620;2022-11-15T04:47:53;3.10;99.90
22678;DHT22;26259;50.214;18.620;2022-11-15T04:50:18;3.10;99.90
22678;DHT22;26259;50.214;18.620;2022-11-15T04:52:51;3.10;99.90
22678;DHT22;26259;50.214;18.620;2022-11-15T04:55:16;3.10;99.90
22678;DHT22;26259;50.214;18.620;2022-11-15T04:57:42;3.10;99.90
22678;DHT22;26259;50.214;18.620;2022-11-15T05:00:11;3.00;99.90
22678;DHT22;26259;50.214;18.620;2022-11-15T05:02:37;3.00;99.90
22678;DHT22;26259;50.214;18.620;2022-11-15T05:05:21;3.00;99.90
22678;DHT22;26259;50.214;18.620;2022-11-15T05:07:47;3.00;99.90
22678;DHT22;26259;50.214;18.620;2022-11-15T05:10:12;3.00;99.90
22678;DHT22;26259;50.214;18.620;2022-11-15T05:12:38;3.00;99.90
22678;DHT22;26259;50.214;18.620;2022-11-15T05:15:04;3.00;99.90
22678;DHT22;26259;50.214;18.620;2022-11-15T05:17:30;2.90;99.90
22678;DHT22;26259;50.214;18.620;2022-11-15T05:19:56;2.90;99.90
22678;DHT22;26259;50.214;18.620;2022-11-15T05:22:22;2.80;99.90
22678;DHT22;26259;50.214;18.620;2022-11-15T05:24:48;2.80;99.90
22678;DHT22;26259;50.214;18.620;2022-11-15T05:27:13;2.80;99.90
22678;DHT22;26259;50.214;18.620;2022-11-15T05:29:39;2.70;99.90
22678;DHT22;26259;50.214;18.620;2022-11-15T05:32:06;2.80;99.90
22678;DHT22;26259;50.214;18.620;2022-11-15T05:34:32;2.70;99.90
22678;DHT22;26259;50.214;18.620;2022-11-15T05:36:58;2.70;99.90
22678;DHT22;26259;50.214;18.620;2022-11-15T05:39:24;2.70;99.90
22678;DHT22;26259;50.214;18.620;2022-11-15T05:42:01;2.70;99.90
22678;DHT22;26259;50.214;18.620;2022-11-15T05:44:28;2.60;99.90
22678;DHT22;26259;50.214;18.620;2022-11-15T05:46:55;2.60;99.90
22678;DHT22;26259;50.214;18.620;2022-11-15T05:49:24;2.60;99.90
22678;DHT22;26259;50.214;18.620;2022-11-15T05:51:53;2.50;99.90
22678;DHT22;26259;50.214;18.620;2022-11-15T05:54:20;2.50;99.90
22678;DHT22;26259;50.214;18.620;2022-11-15T05:56:46;2.50;99.90
22678;DHT22;26259;50.214;18.620;2022-11-15T05:59:12;2.40;99.90
22678;DHT22;26259;50.214;18.620;2022-11-15T06:01:38;2.40;99.90
22678;DHT22;26259;50.214;18.620;2022-11-15T06:04:04;2.40;99.90
22678;DHT22;26259;50.214;18.620;2022-11-15T06:06:30;2.30;99.90
22678;DHT22;26259;50.214;18.620;2022-11-15T06:08:56;2.30;99.90
22678;DHT22;26259;50.214;18.620;2022-11-15T06:11:21;2.30;99.90
22678;DHT22;26259;50.214;18.620;2022-11-15T06:13:47;2.20;99.90
22678;DHT22;26259;50.214;18.620;2022-11-15T06:16:12;2.20;99.90
22678;DHT22;26259;50.214;18.620;2022-11-15T06:18:39;2.20;99.90
22678;DHT22;26259;50.214;18.620;2022-11-15T06:21:05;2.20;99.90
22678;DHT22;26259;50.214;18.620;2022-11-15T06:23:34;2.20;99.90
22678;DHT22;26259;50.214;18.620;2022-11-15T06:26:01;2.20;99.90
22678;DHT22;26259;50.214;18.620;2022-11-15T06:28:31;2.20;99.90
22678;DHT22;26259;50.214;18.620;2022-11-15T06:31:08;2.10;99.90
22678;DHT22;26259;50.214;18.620;2022-11-15T06:33:34;2.10;99.90
22678;DHT22;26259;50.214;18.620;2022-11-15T06:36:05;2.10;99.90
22678;DHT22;26259;50.214;18.620;2022-11-15T06:38:31;2.10;99.90
22678;DHT22;26259;50.214;18.620;2022-11-15T06:41:04;2.10;99.90
22678;DHT22;26259;50.214;18.620;2022-11-15T06:43:30;2.20;99.90
22678;DHT22;26259;50.214;18.620;2022-11-15T06:46:01;2.20;99.90
22678;DHT22;26259;50.214;18.620;2022-11-15T06:48:27;2.30;99.90
22678;DHT22;26259;50.214;18.620;2022-11-15T06:50:54;2.30;99.90
22678;DHT22;26259;50.214;18.620;2022-11-15T06:53:21;2.30;99.90
22678;DHT22;26259;50.214;18.620;2022-11-15T06:55:46;2.40;99.90
22678;DHT22;26259;50.214;18.620;2022-11-15T06:58:12;2.40;99.90
22678;DHT22;26259;50.214;18.620;2022-11-15T07:00:38;2.40;99.90
22678;DHT22;26259;50.214;18.620;2022-11-15T07:03:03;2.50;99.90
22678;DHT22;26259;50.214;18.620;2022-11-15T07:05:29;2.50;99.90
22678;DHT22;26259;50.214;18.620;2022-11-15T07:07:56;2.60;99.90
22678;DHT22;26259;50.214;18.620;2022-11-15T07:10:22;2.60;99.90
22678;DHT22;26259;50.214;18.620;2022-11-15T07:12:50;2.70;99.90
22678;DHT22;26259;50.214;18.620;2022-11-15T07:15:17;2.70;99.90
22678;DHT22;26259;50.214;18.620;2022-11-15T07:17:43;2.80;99.90
22678;DHT22;26259;50.214;18.620;2022-11-15T07:20:09;2.90;99.90
22678;DHT22;26259;50.214;18.620;2022-11-15T07:22:35;3.00;99.90
22678;DHT22;26259;50.214;18.620;2022-11-15T07:25:01;3.00;99.90
22678;DHT22;26259;50.214;18.620;2022-11-15T07:27:26;3.10;99.90
22678;DHT22;26259;50.214;18.620;2022-11-15T07:29:52;3.20;99.90
22678;DHT22;26259;50.214;18.620;2022-11-15T07:32:17;3.40;99.90
22678;DHT22;26259;50.214;18.620;2022-11-15T07:34:43;3.40;99.90
22678;DHT22;26259;50.214;18.620;2022-11-15T07:37:10;3.50;99.90
22678;DHT22;26259;50.214;18.620;2022-11-15T07:39:36;3.70;99.90
22678;DHT22;26259;50.214;18.620;2022-11-15T07:42:02;3.80;99.90
22678;DHT22;26259;50.214;18.620;2022-11-15T07:44:46;3.80;99.90
22678;DHT22;26259;50.214;18.620;2022-11-15T07:47:12;4.00;99.90
22678;DHT22;26259;50.214;18.620;2022-11-15T07:49:37;4.00;99.90
22678;DHT22;26259;50.214;18.620;2022-11-15T07:52:03;4.10;99.90
22678;DHT22;26259;50.214;18.620;2022-11-15T07:54:29;4.20;99.90
22678;DHT22;26259;50.214;18.620;2022-11-15T07:56:54;4.30;99.90
22678;DHT22;26259;50.214;18.620;2022-11-15T07:59:20;4.40;99.90
22678;DHT22;26259;50.214;18.620;2022-11-15T08:01:45;4.50;99.90
22678;DHT22;26259;50.214;18.620;2022-11-15T08:04:11;4.60;99.90
22678;DHT22;26259;50.214;18.620;2022-11-15T08:06:37;4.70;99.90
22678;DHT22;26259;50.214;18.620;2022-11-15T08:09:03;4.80;99.90
22678;DHT22;26259;50.214;18.620;2022-11-15T08:11:28;4.80;99.90
22678;DHT22;26259;50.214;18.620;2022-11-15T08:13:54;4.90;99.90
22678;DHT22;26259;50.214;18.620;2022-11-15T08:16:19;5.00;99.90
22678;DHT22;26259;50.214;18.620;2022-11-15T08:18:45;5.20;99.90
22678;DHT22;26259;50.214;18.620;2022-11-15T08:21:19;5.30;99.90
22678;DHT22;26259;50.214;18.620;2022-11-15T08:23:45;5.40;99.90
22678;DHT22;26259;50.214;18.620;2022-11-15T08:26:11;5.50;99.90
22678;DHT22;26259;50.214;18.620;2022-11-15T08:28:37;5.60;99.90
22678;DHT22;26259;50.214;18.620;2022-11-15T08:31:03;5.70;99.90
22678;DHT22;26259;50.214;18.620;2022-11-15T08:33:31;5.90;99.90
22678;DHT22;26259;50.214;18.620;2022-11-15T08:35:58;6.00;99.90
22678;DHT22;26259;50.214;18.620;2022-11-15T08:38:24;6.20;99.90
22678;DHT22;26259;50.214;18.620;2022-11-15T08:40:53;6.30;99.90
22678;DHT22;26259;50.214;18.620;2022-11-15T08:43:23;6.50;99.90
22678;DHT22;26259;50.214;18.620;2022-11-15T08:45:49;6.70;99.90
22678;DHT22;26259;50.214;18.620;2022-11-15T08:48:14;6.80;99.90
22678;DHT22;26259;50.214;18.620;2022-11-15T08:50:40;7.00;99.90
22678;DHT22;26259;50.214;18.620;2022-11-15T08:53:09;7.10;99.90
22678;DHT22;26259;50.214;18.620;2022-11-15T08:55:39;7.20;99.90
22678;DHT22;26259;50.214;18.620;2022-11-15T08:58:04;7.40;99.90
22678;DHT22;26259;50.214;18.620;2022-11-15T09:00:30;7.60;99.90
22678;DHT22;26259;50.214;18.620;2022-11-15T09:02:56;7.70;99.90
22678;DHT22;26259;50.214;18.620;2022-11-15T09:05:21;7.80;99.90
22678;DHT22;26259;50.214;18.620;2022-11-15T09:07:47;8.00;99.90
22678;DHT22;26259;50.214;18.620;2022-11-15T09:10:13;8.20;99.90
22678;DHT22;26259;50.214;18.620;2022-11-15T09:12:38;8.40;99.90
22678;DHT22;26259;50.214;18.620;2022-11-15T09:15:05;8.60;99.90
22678;DHT22;26259;50.214;18.620;2022-11-15T09:17:31;8.80;99.90
22678;DHT22;26259;50.214;18.620;2022-11-15T09:19:57;9.10;99.90
22678;DHT22;26259;50.214;18.620;2022-11-15T09:22:22;9.30;99.90
22678;DHT22;26259;50.214;18.620;2022-11-15T09:24:48;9.60;99.90
22678;DHT22;26259;50.214;18.620;2022-11-15T09:27:13;9.80;99.90
22678;DHT22;26259;50.214;18.620;2022-11-15T09:29:39;10.10;99.90
22678;DHT22;26259;50.214;18.620;2022-11-15T09:32:05;10.40;99.90
22678;DHT22;26259;50.214;18.620;2022-11-15T09:34:30;10.70;99.90
22678;DHT22;26259;50.214;18.620;2022-11-15T09:36:56;11.10;99.90
22678;DHT22;26259;50.214;18.620;2022-11-15T09:39:21;11.40;99.90
22678;DHT22;26259;50.214;18.620;2022-11-15T09:41:58;11.60;99.90
22678;DHT22;26259;50.214;18.620;2022-11-15T09:44:36;11.80;99.90
22678;DHT22;26259;50.214;18.620;2022-11-15T09:50:44;12.10;99.90
22678;DHT22;26259;50.214;18.620;2022-11-15T09:53:16;12.20;99.90
22678;DHT22;26259;50.214;18.620;2022-11-15T09:56:01;12.20;99.90
22678;DHT22;26259;50.214;18.620;2022-11-15T10:04:03;12.20;99.90
22678;DHT22;26259;50.214;18.620;2022-11-15T10:06:30;12.20;99.90
22678;DHT22;26259;50.214;18.620;2022-11-15T10:09:14;12.20;99.90
22678;DHT22;26259;50.214;18.620;2022-11-15T10:11:41;12.20;99.90
22678;DHT22;26259;50.214;18.620;2022-11-15T10:14:17;12.10;99.90
22678;DHT22;26259;50.214;18.620;2022-11-15T10:22:29;12.00;99.90
22678;DHT22;26259;50.214;18.620;2022-11-15T10:27:29;11.90;99.90
22678;DHT22;26259;50.214;18.620;2022-11-15T10:29:55;11.90;99.90
22678;DHT22;26259;50.214;18.620;2022-11-15T10:32:21;11.90;99.90
22678;DHT22;26259;50.214;18.620;2022-11-15T10:34:48;11.80;99.90
22678;DHT22;26259;50.214;18.620;2022-11-15T10:37:14;11.90;99.90
22678;DHT22;26259;50.214;18.620;2022-11-15T10:39:40;11.90;99.90
22678;DHT22;26259;50.214;18.620;2022-11-15T10:44:43;11.90;99.90
22678;DHT22;26259;50.214;18.620;2022-11-15T10:47:29;11.90;99.90
22678;DHT22;26259;50.214;18.620;2022-11-15T10:50:02;11.90;99.90
22678;DHT22;26259;50.214;18.620;2022-11-15T10:52:30;11.80;99.90
22678;DHT22;26259;50.214;18.620;2022-11-15T10:57:28;11.80;99.90
22678;DHT22;26259;50.214;18.620;2022-11-15T11:00:02;11.80;99.90
22678;DHT22;26259;50.214;18.620;2022-11-15T11:02:45;11.80;99.90
22678;DHT22;26259;50.214;18.620;2022-11-15T11:05:31;11.80;99.90
22678;DHT22;26259;50.214;18.620;2022-11-15T11:08:25;11.70;99.90
22678;DHT22;26259;50.214;18.620;2022-11-15T11:10:59;11.70;99.90
22678;DHT22;26259;50.214;18.620;2022-11-15T11:13:35;11.60;99.90
22678;DHT22;26259;50.214;18.620;2022-11-15T11:21:36;11.70;99.90
22678;DHT22;26259;50.214;18.620;2022-11-15T11:24:22;11.80;99.90
22678;DHT22;26259;50.214;18.620;2022-11-15T11:30:10;12.20;99.90
22678;DHT22;26259;50.214;18.620;2022-11-15T11:32:43;12.40;99.90
22678;DHT22;26259;50.214;18.620;2022-11-15T11:35:19;12.70;99.90
22678;DHT22;26259;50.214;18.620;2022-11-15T11:40:43;13.10;99.90
22678;DHT22;26259;50.214;18.620;2022-11-15T11:43:31;13.40;99.90
22678;DHT22;26259;50.214;18.620;2022-11-15T11:48:47;13.60;99.90
22678;DHT22;26259;50.214;18.620;2022-11-15T11:51:28;13.80;99.90
22678;DHT22;26259;50.214;18.620;2022-11-15T11:56:44;13.80;99.90
22678;DHT22;26259;50.214;18.620;2022-11-15T12:04:54;13.90;99.90
22678;DHT22;26259;50.214;18.620;2022-11-15T12:07:31;13.90;99.90
22678;DHT22;26259;50.214;18.620;2022-11-15T12:10:18;13.80;99.90
22678;DHT22;26259;50.214;18.620;2022-11-15T12:12:56;13.90;99.90
22678;DHT22;26259;50.214;18.620;2022-11-15T12:15:27;13.90;99.90
22678;DHT22;26259;50.214;18.620;2022-11-15T12:17:55;13.90;99.90
22678;DHT22;26259;50.214;18.620;2022-11-15T12:20:37;13.80;99.90
22678;DHT22;26259;50.214;18.620;2022-11-15T12:23:27;13.70;99.90
22678;DHT22;26259;50.214;18.620;2022-11-15T12:26:02;13.60;99.90
22678;DHT22;26259;50.214;18.620;2022-11-15T12:28:56;13.50;99.90
22678;DHT22;26259;50.214;18.620;2022-11-15T12:31:43;13.40;99.90
22678;DHT22;26259;50.214;18.620;2022-11-15T12:36:45;13.30;99.90
22678;DHT22;26259;50.214;18.620;2022-11-15T12:39:12;13.30;99.90
22678;DHT22;26259;50.214;18.620;2022-11-15T12:41:40;13.20;99.90
22678;DHT22;26259;50.214;18.620;2022-11-15T12:57:51;13.20;99.90
22678;DHT22;26259;50.214;18.620;2022-11-15T13:00:00;13.20;99.90
22678;DHT22;26259;50.214;18.620;2022-11-15T13:17:56;13.00;99.90
22678;DHT22;26259;50.214;18.620;2022-11-15T13:20:29;13.00;99.90
22678;DHT22;26259;50.214;18.620;2022-11-15T13:28:02;12.80;99.90
22678;DHT22;26259;50.214;18.620;2022-11-15T13:30:33;12.80;99.90
22678;DHT22;26259;50.214;18.620;2022-11-15T13:33:09;12.80;99.90
22678;DHT22;26259;50.214;18.620;2022-11-15T13:35:39;12.80;99.90
22678;DHT22;26259;50.214;18.620;2022-11-15T13:38:05;12.70;99.90
22678;DHT22;26259;50.214;18.620;2022-11-15T13:40:37;12.60;99.90
22678;DHT22;26259;50.214;18.620;2022-11-15T13:43:35;12.60;99.90
22678;DHT22;26259;50.214;18.620;2022-11-15T13:49:09;12.70;99.90
22678;DHT22;26259;50.214;18.620;2022-11-15T13:51:45;12.70;99.90
22678;DHT22;26259;50.214;18.620;2022-11-15T13:54:23;12.70;99.90
22678;DHT22;26259;50.214;18.620;2022-11-15T13:57:05;12.70;99.90
22678;DHT22;26259;50.214;18.620;2022-11-15T13:59:36;12.60;99.90
22678;DHT22;26259;50.214;18.620;2022-11-15T14:02:12;12.60;99.90
22678;DHT22;26259;50.214;18.620;2022-11-15T14:04:45;12.50;99.90
22678;DHT22;26259;50.214;18.620;2022-11-15T14:07:18;12.50;99.90
22678;DHT22;26259;50.214;18.620;2022-11-15T14:09:44;12.40;99.90
22678;DHT22;26259;50.214;18.620;2022-11-15T14:14:52;12.30;99.90
22678;DHT22;26259;50.214;18.620;2022-11-15T14:19:59;12.20;99.90
22678;DHT22;26259;50.214;18.620;2022-11-15T14:22:27;12.20;99.90
22678;DHT22;26259;50.214;18.620;2022-11-15T14:27:38;12.10;99.90
22678;DHT22;26259;50.214;18.620;2022-11-15T14:30:04;12.10;99.90
22678;DHT22;26259;50.214;18.620;2022-11-15T14:35:15;12.00;99.90
22678;DHT22;26259;50.214;18.620;2022-11-15T14:37:41;11.90;99.90
22678;DHT22;26259;50.214;18.620;2022-11-15T14:40:07;11.90;99.90
22678;DHT22;26259;50.214;18.620;2022-11-15T14:42:35;11.90;99.90
22678;DHT22;26259;50.214;18.620;2022-11-15T14:45:00;11.80;99.90
22678;DHT22;26259;50.214;18.620;2022-11-15T14:47:26;11.70;99.90
22678;DHT22;26259;50.214;18.620;2022-11-15T14:49:51;11.70;99.90
22678;DHT22;26259;50.214;18.620;2022-11-15T14:52:29;11.70;99.90
22678;DHT22;26259;50.214;18.620;2022-11-15T14:54:56;11.60;99.90
22678;DHT22;26259;50.214;18.620;2022-11-15T14:57:23;11.50;99.90
22678;DHT22;26259;50.214;18.620;2022-11-15T14:59:49;11.50;99.90
22678;DHT22;26259;50.214;18.620;2022-11-15T15:02:21;11.40;99.90
22678;DHT22;26259;50.214;18.620;2022-11-15T15:04:47;11.30;99.90
22678;DHT22;26259;50.214;18.620;2022-11-15T15:07:13;11.20;99.90
22678;DHT22;26259;50.214;18.620;2022-11-15T15:09:39;11.10;99.90
22678;DHT22;26259;50.214;18.620;2022-11-15T15:14:40;10.90;99.90
22678;DHT22;26259;50.214;18.620;2022-11-15T15:17:05;10.80;99.90
22678;DHT22;26259;50.214;18.620;2022-11-15T15:19:31;10.70;99.90
22678;DHT22;26259;50.214;18.620;2022-11-15T15:21:56;10.60;99.90
22678;DHT22;26259;50.214;18.620;2022-11-15T15:24:22;10.50;99.90
22678;DHT22;26259;50.214;18.620;2022-11-15T15:26:47;10.40;99.90
22678;DHT22;26259;50.214;18.620;2022-11-15T15:29:13;10.30;99.90
22678;DHT22;26259;50.214;18.620;2022-11-15T15:31:38;10.20;99.90
22678;DHT22;26259;50.214;18.620;2022-11-15T15:34:04;10.10;99.90
22678;DHT22;26259;50.214;18.620;2022-11-15T15:36:30;10.00;99.90
22678;DHT22;26259;50.214;18.620;2022-11-15T15:38:55;9.90;99.90
22678;DHT22;26259;50.214;18.620;2022-11-15T15:41:21;9.80;99.90
22678;DHT22;26259;50.214;18.620;2022-11-15T15:43:46;9.80;99.90
22678;DHT22;26259;50.214;18.620;2022-11-15T15:46:17;9.60;99.90
22678;DHT22;26259;50.214;18.620;2022-11-15T15:48:44;9.50;99.90
22678;DHT22;26259;50.214;18.620;2022-11-15T15:51:09;9.50;99.90
22678;DHT22;26259;50.214;18.620;2022-11-15T15:53:35;9.40;99.90
22678;DHT22;26259;50.214;18.620;2022-11-15T15:56:01;9.30;99.90
22678;DHT22;26259;50.214;18.620;2022-11-15T15:58:27;9.20;99.90
22678;DHT22;26259;50.214;18.620;2022-11-15T16:00:52;9.10;99.90
22678;DHT22;26259;50.214;18.620;2022-11-15T16:03:18;9.10;99.90
22678;DHT22;26259;50.214;18.620;2022-11-15T16:05:45;9.00;99.90
22678;DHT22;26259;50.214;18.620;2022-11-15T16:08:22;8.90;99.90
22678;DHT22;26259;50.214;18.620;2022-11-15T16:10:49;8.90;99.90
22678;DHT22;26259;50.214;18.620;2022-11-15T16:13:15;9.00;99.90
22678;DHT22;26259;50.214;18.620;2022-11-15T16:15:41;9.00;99.90
22678;DHT22;26259;50.214;18.620;2022-11-15T16:18:17;9.00;99.90
22678;DHT22;26259;50.214;18.620;2022-11-15T16:20:46;8.90;99.90
22678;DHT22;26259;50.214;18.620;2022-11-15T16:23:16;8.90;99.90
22678;DHT22;26259;50.214;18.620;2022-11-15T16:25:47;8.90;99.90
22678;DHT22;26259;50.214;18.620;2022-11-15T16:28:19;9.00;99.90
22678;DHT22;26259;50.214;18.620;2022-11-15T16:30:45;9.00;99.90
22678;DHT22;26259;50.214;18.620;2022-11-15T16:33:10;9.00;99.90
22678;DHT22;26259;50.214;18.620;2022-11-15T16:35:36;9.00;99.90
22678;DHT22;26259;50.214;18.620;2022-11-15T16:38:01;9.00;99.90
22678;DHT22;26259;50.214;18.620;2022-11-15T16:40:29;9.00;99.90
22678;DHT22;26259;50.214;18.620;2022-11-15T16:42:56;9.00;99.90
22678;DHT22;26259;50.214;18.620;2022-11-15T16:45:23;9.00;99.90
22678;DHT22;26259;50.214;18.620;2022-11-15T16:47:49;9.10;99.90
22678;DHT22;26259;50.214;18.620;2022-11-15T16:52:49;9.10;99.90
22678;DHT22;26259;50.214;18.620;2022-11-15T16:55:15;9.20;99.90
22678;DHT22;26259;50.214;18.620;2022-11-15T16:57:40;9.20;99.90
22678;DHT22;26259;50.214;18.620;2022-11-15T17:00:07;9.20;99.90
22678;DHT22;26259;50.214;18.620;2022-11-15T17:02:34;9.20;99.90
22678;DHT22;26259;50.214;18.620;2022-11-15T17:05:00;9.20;99.90
22678;DHT22;26259;50.214;18.620;2022-11-15T17:07:26;9.20;99.90
22678;DHT22;26259;50.214;18.620;2022-11-15T17:09:51;9.20;99.90
22678;DHT22;26259;50.214;18.620;2022-11-15T17:12:17;9.20;99.90
22678;DHT22;26259;50.214;18.620;2022-11-15T17:14:42;9.30;99.90
22678;DHT22;26259;50.214;18.620;2022-11-15T17:17:10;9.30;99.90
22678;DHT22;26259;50.214;18.620;2022-11-15T17:19:36;9.30;99.90
22678;DHT22;26259;50.214;18.620;2022-11-15T17:22:01;9.30;99.90
22678;DHT22;26259;50.214;18.620;2022-11-15T17:24:27;9.30;99.90
22678;DHT22;26259;50.214;18.620;2022-11-15T17:26:52;9.30;99.90
22678;DHT22;26259;50.214;18.620;2022-11-15T17:29:18;9.30;99.90
22678;DHT22;26259;50.214;18.620;2022-11-15T17:31:43;9.30;99.90
22678;DHT22;26259;50.214;18.620;2022-11-15T17:34:09;9.30;99.90
22678;DHT22;26259;50.214;18.620;2022-11-15T17:36:35;9.30;99.90
22678;DHT22;26259;50.214;18.620;2022-11-15T17:39:01;9.30;99.90
22678;DHT22;26259;50.214;18.620;2022-11-15T17:41:27;9.30;99.90
22678;DHT22;26259;50.214;18.620;2022-11-15T17:43:56;9.30;99.90
22678;DHT22;26259;50.214;18.620;2022-11-15T17:46:22;9.20;99.90
22678;DHT22;26259;50.214;18.620;2022-11-15T17:48:48;9.20;99.90
22678;DHT22;26259;50.214;18.620;2022-11-15T17:51:16;9.20;99.90
22678;DHT22;26259;50.214;18.620;2022-11-15T17:53:44;9.10;99.90
22678;DHT22;26259;50.214;18.620;2022-11-15T17:56:14;9.10;99.90
22678;DHT22;26259;50.214;18.620;2022-11-15T17:58:41;9.10;99.90
22678;DHT22;26259;50.214;18.620;2022-11-15T18:01:08;9.10;99.90
22678;DHT22;26259;50.214;18.620;2022-11-15T18:03:37;9.00;99.90
22678;DHT22;26259;50.214;18.620;2022-11-15T18:06:05;9.00;99.90